Aérodrome :
LOGIN :

S'inscrire | Disclaimer

   EN    FR    IT 

 










Légende :    VFR   VFR Marginal   IFR   IFR Intensif   IFR Très Intensif
Visi : 
Plafond : 
>= 8 km
>= 3000ft
5 à 8 km
1000 à 3000 ft
1500m à 5 km
500 à 1000 ft
800 à 1500m
200 à 500 ft
< 800m
< 200 ft
Symboles :   Orages  Brouillard  Fortes neiges  Fortes précipitations  Vent > 20 kt
SIGMETs :   Divers  Orages  Givrage  Turbulence  Onde Orograph.  Cendres Volcan.







- Altitude de l'aérodrome : 291 ft
- Code IATA : ORY
- Voir les cartes d'approche


LFPO - Paris-Orly

DERNIER METAR :
  • 260500Z 21004KT 170V250 CAVOK 06/M00 Q1015 NOSIG

METARs EXPIRÉS :
  • 260430Z 19007KT CAVOK 06/00 Q1015 NOSIG
  • 260400Z 19004KT CAVOK 06/00 Q1015 NOSIG
  • 260330Z 19008KT CAVOK 06/00 Q1015 NOSIG
  • 260300Z 20004KT CAVOK 06/M00 Q1016 NOSIG

TAF TAF LFPO
Valide du 26 à 00h jusqu'au 27 à 06h UTC


252300Z 2600/2706 21005KT CAVOK
BECMG 2605/2608 BKN020
TEMPO 2609/2706 BKN012
PROB30
TEMPO 2610/2618 -RA BKN008
BECMG 2614/2617 21012G24KT
ATIS : +33 1 49 75 65 80
Pas de NOTAMs connus pour ce terrain.



MET'MAP, la Météo Aéronautique d'un coup d'oeil ! - Copyright ORBIFLY Décembre 2007 - Disclaimer

ORBIFLY MET'MAP TEAM :

Programmation & Développement : Alexandra Zaïnal
Conception & Développement : Baudouin d'Aumeries
Co-Programmation & Développement : Marc-Olivier Méhu
Soutien technique & logistique : Manuel Goepfert

Contact : metmap@orbifly.com




SOURCES & CREDITS :

   NOAA